Time;durP1;ratioP1;P1;durP2;ratioP2;P2;SDS_P1;SDS_P2;PMS_P1;PMS_P2;Temp;Humidity;BMP_temperature;BMP_pressure;BME280_temperature;BME280_humidity;BME280_pressure;Samples;Min_cycle;Max_cycle;Signal;HPM_P1;HPM_P2
2022/01/21 00:01:38;;;;;;;18.17;12.13;;;;;;;;;;4950052;28;20213;-80
2022/01/21 00:04:06;;;;;;;22.07;14.73;;;;;;;;;;4950522;28;20202;-80
2022/01/21 00:06:33;;;;;;;18.67;9.13;;;;;;;;;;4950784;28;20237;-81
2022/01/21 00:09:01;;;;;;;11.57;7.00;;;;;;;;;;4950019;28;20682;-81
2022/01/21 00:11:31;;;;;;;15.27;6.50;;;;;;;;;;4950894;29;20294;-80
2022/01/21 00:13:58;;;;;;;12.53;5.30;;;;;;;;;;4950857;28;20206;-81
2022/01/21 00:16:26;;;;;;;20.10;11.13;;;;;;;;;;4950816;28;20709;-81
2022/01/21 00:18:57;;;;;;;13.50;7.73;;;;;;;;;;4950821;28;20840;-80
2022/01/21 00:32:25;;;;;;;15.60;5.07;;;;;;;;;;5010611;28;20203;-81
2022/01/21 00:34:52;;;;;;;12.00;5.00;;;;;;;;;;5010803;28;20941;-81
2022/01/21 00:37:20;;;;;;;11.17;4.43;;;;;;;;;;5011190;28;20299;-81
2022/01/21 00:39:52;;;;;;;12.97;4.90;;;;;;;;;;5011433;28;20227;-81
2022/01/21 00:42:44;;;;;;;15.17;4.60;;;;;;;;;;5008784;28;20272;-81
2022/01/21 00:45:14;;;;;;;12.03;4.80;;;;;;;;;;5011672;28;20626;-81
2022/01/21 00:47:41;;;;;;;11.63;4.57;;;;;;;;;;5010146;28;20287;-80
2022/01/21 00:50:09;;;;;;;9.90;4.13;;;;;;;;;;5010509;28;20232;-80
2022/01/21 00:52:36;;;;;;;13.47;5.10;;;;;;;;;;5010627;28;20227;-80
2022/01/21 00:55:04;;;;;;;15.00;4.80;;;;;;;;;;5010618;28;20235;-80
2022/01/21 00:57:33;;;;;;;11.97;4.30;;;;;;;;;;5010242;28;20739;-80
2022/01/21 01:00:00;;;;;;;11.03;4.33;;;;;;;;;;5010674;28;20228;-81
2022/01/21 01:02:28;;;;;;;11.57;4.03;;;;;;;;;;5009707;28;20238;-81
2022/01/21 01:04:55;;;;;;;13.07;3.97;;;;;;;;;;5009971;28;20295;-80
2022/01/21 01:07:23;;;;;;;12.23;3.93;;;;;;;;;;5011037;28;20723;-80
2022/01/21 01:09:53;;;;;;;10.23;4.10;;;;;;;;;;5013825;28;20221;-80
2022/01/21 01:12:30;;;;;;;13.43;4.37;;;;;;;;;;5013215;28;20201;-80
2022/01/21 01:20:27;;;;;;;11.60;3.67;;;;;;;;;;5014398;28;20365;-81
2022/01/21 01:23:00;;;;;;;12.17;4.10;;;;;;;;;;5014116;28;20275;-80
2022/01/21 01:28:12;;;;;;;13.10;4.60;;;;;;;;;;5013533;28;20272;-81
2022/01/21 01:30:41;;;;;;;12.20;4.60;;;;;;;;;;5014177;28;20258;-80
2022/01/21 01:33:11;;;;;;;8.90;4.10;;;;;;;;;;5013618;28;20212;-80
2022/01/21 01:35:39;;;;;;;10.17;4.27;;;;;;;;;;5013500;28;20249;-80
2022/01/21 01:40:51;;;;;;;9.97;3.93;;;;;;;;;;5011092;28;20225;-80
2022/01/21 01:51:26;;;;;;;10.30;4.57;;;;;;;;;;5012656;28;20241;-80
2022/01/21 01:53:54;;;;;;;9.17;4.60;;;;;;;;;;5013020;28;20234;-81
2022/01/21 01:56:24;;;;;;;9.50;4.70;;;;;;;;;;5008258;28;20287;-81
2022/01/21 01:58:51;;;;;;;10.00;4.40;;;;;;;;;;5013173;28;20256;-81
2022/01/21 02:01:19;;;;;;;8.63;4.37;;;;;;;;;;5012815;28;20208;-80
2022/01/21 02:03:47;;;;;;;7.50;4.00;;;;;;;;;;5013573;28;20296;-80
2022/01/21 02:06:14;;;;;;;13.53;4.80;;;;;;;;;;5013123;28;20241;-80
2022/01/21 02:08:41;;;;;;;10.83;5.03;;;;;;;;;;5012592;28;20624;-81
2022/01/21 02:11:09;;;;;;;11.90;5.00;;;;;;;;;;5013192;28;20332;-81
2022/01/21 02:13:41;;;;;;;11.60;4.60;;;;;;;;;;5013083;28;20705;-81
2022/01/21 02:16:16;;;;;;;15.07;5.30;;;;;;;;;;5013381;28;20294;-80
2022/01/21 02:21:35;;;;;;;13.40;5.23;;;;;;;;;;5012735;28;20206;-80
2022/01/21 02:24:04;;;;;;;8.70;4.70;;;;;;;;;;5012045;28;20251;-80
2022/01/21 02:26:31;;;;;;;7.60;4.73;;;;;;;;;;5012085;28;20198;-80
2022/01/21 02:29:00;;;;;;;6.80;4.63;;;;;;;;;;5013223;28;20276;-80
2022/01/21 02:31:28;;;;;;;12.27;5.03;;;;;;;;;;5012696;28;20203;-80
2022/01/21 02:33:55;;;;;;;11.00;5.47;;;;;;;;;;5013014;28;20304;-80
2022/01/21 02:36:23;;;;;;;12.00;5.73;;;;;;;;;;5012076;28;20250;-80
2022/01/21 02:38:51;;;;;;;9.97;5.87;;;;;;;;;;5012281;28;20296;-80
2022/01/21 02:41:18;;;;;;;13.50;5.53;;;;;;;;;;5012434;28;20245;-80
2022/01/21 02:43:46;;;;;;;13.50;5.60;;;;;;;;;;5012493;28;20689;-79
2022/01/21 02:46:15;;;;;;;9.20;5.40;;;;;;;;;;5012396;28;20262;-80
2022/01/21 02:48:42;;;;;;;10.27;5.20;;;;;;;;;;5013082;28;20205;-80
2022/01/21 02:51:10;;;;;;;15.00;5.80;;;;;;;;;;5012074;28;20352;-80
2022/01/21 02:54:03;;;;;;;9.00;5.33;;;;;;;;;;5012003;28;20772;-80
2022/01/21 02:56:29;;;;;;;10.43;5.57;;;;;;;;;;5000751;28;20596;-80
2022/01/21 02:58:56;;;;;;;12.10;5.80;;;;;;;;;;5011200;28;20668;-80
2022/01/21 03:01:24;;;;;;;12.03;5.37;;;;;;;;;;5011557;28;20237;-80
2022/01/21 03:03:51;;;;;;;13.13;5.47;;;;;;;;;;5012563;28;20198;-80
2022/01/21 03:06:21;;;;;;;14.57;5.03;;;;;;;;;;5011686;28;20989;-80
2022/01/21 03:08:49;;;;;;;11.57;5.00;;;;;;;;;;5012541;28;20734;-80
2022/01/21 03:11:17;;;;;;;10.77;5.33;;;;;;;;;;5012180;28;20260;-79
2022/01/21 03:13:46;;;;;;;11.53;5.57;;;;;;;;;;5010554;28;20288;-79
2022/01/21 03:16:13;;;;;;;17.63;6.17;;;;;;;;;;5011411;28;20197;-80
2022/01/21 03:18:40;;;;;;;13.23;5.63;;;;;;;;;;5012318;28;20294;-79
2022/01/21 03:21:10;;;;;;;13.33;5.93;;;;;;;;;;5011245;28;20221;-79
2022/01/21 03:23:37;;;;;;;12.73;5.90;;;;;;;;;;5012270;28;20288;-80
2022/01/21 03:26:05;;;;;;;14.43;6.43;;;;;;;;;;5012305;28;20247;-80
2022/01/21 03:28:32;;;;;;;10.40;5.90;;;;;;;;;;5011725;28;20287;-79
2022/01/21 03:31:01;;;;;;;12.50;5.83;;;;;;;;;;5011845;28;20224;-80
2022/01/21 03:33:28;;;;;;;13.33;5.63;;;;;;;;;;5011542;28;20201;-80
2022/01/21 03:35:55;;;;;;;14.13;5.53;;;;;;;;;;5011674;28;20700;-80
2022/01/21 03:38:26;;;;;;;16.80;10.80;;;;;;;;;;5011720;28;20280;-80
2022/01/21 03:40:53;;;;;;;12.03;6.27;;;;;;;;;;5011377;28;20236;-80
2022/01/21 03:43:20;;;;;;;15.10;6.40;;;;;;;;;;5010771;28;20264;-80
2022/01/21 03:45:48;;;;;;;13.90;6.07;;;;;;;;;;5007886;28;20296;-80
2022/01/21 03:48:17;;;;;;;9.10;5.37;;;;;;;;;;5000498;28;20239;-80
2022/01/21 03:50:44;;;;;;;13.10;5.67;;;;;;;;;;5008772;28;20662;-80
2022/01/21 03:53:11;;;;;;;10.63;5.10;;;;;;;;;;5010369;28;20284;-78
2022/01/21 03:55:39;;;;;;;10.17;5.80;;;;;;;;;;5010025;28;20232;-77
2022/01/21 03:58:07;;;;;;;15.10;5.80;;;;;;;;;;5009735;28;20577;-77
2022/01/21 04:00:35;;;;;;;11.67;5.87;;;;;;;;;;5008213;28;20256;-77
2022/01/21 04:03:04;;;;;;;9.33;5.23;;;;;;;;;;5010738;28;20237;-77
2022/01/21 04:05:34;;;;;;;10.03;5.60;;;;;;;;;;5010969;28;20211;-77
2022/01/21 04:08:01;;;;;;;9.20;5.40;;;;;;;;;;5009099;28;20209;-77
2022/01/21 04:10:28;;;;;;;10.17;5.53;;;;;;;;;;5011169;28;20284;-77
2022/01/21 04:12:56;;;;;;;9.80;5.47;;;;;;;;;;5010813;28;20295;-77
2022/01/21 04:15:23;;;;;;;11.23;6.13;;;;;;;;;;5010787;28;20200;-77
2022/01/21 04:17:51;;;;;;;11.07;5.73;;;;;;;;;;5010308;28;20221;-78
2022/01/21 04:20:18;;;;;;;11.57;5.40;;;;;;;;;;5010796;28;20348;-77
2022/01/21 04:22:46;;;;;;;9.30;5.83;;;;;;;;;;5010792;28;20228;-77
2022/01/21 04:25:14;;;;;;;10.33;5.43;;;;;;;;;;5011039;28;20247;-78
2022/01/21 04:27:41;;;;;;;10.40;6.20;;;;;;;;;;5011235;28;20616;-78
2022/01/21 04:30:10;;;;;;;11.20;5.73;;;;;;;;;;5011223;28;20737;-77
2022/01/21 04:32:37;;;;;;;11.33;5.87;;;;;;;;;;5010793;28;20225;-77
2022/01/21 04:35:05;;;;;;;7.97;5.20;;;;;;;;;;5010811;28;20201;-77
2022/01/21 04:37:32;;;;;;;10.60;5.57;;;;;;;;;;5010879;28;20236;-77
2022/01/21 04:40:07;;;;;;;10.57;5.33;;;;;;;;;;5010766;28;20216;-77
2022/01/21 04:48:04;;;;;;;8.67;5.70;;;;;;;;;;5013421;28;20583;-78
2022/01/21 04:50:39;;;;;;;13.43;5.63;;;;;;;;;;5013825;28;20621;-78
2022/01/21 04:53:07;;;;;;;11.03;5.90;;;;;;;;;;5014363;28;20205;-77
2022/01/21 04:55:35;;;;;;;10.87;5.30;;;;;;;;;;5014483;28;20296;-77
2022/01/21 04:58:03;;;;;;;6.93;4.93;;;;;;;;;;5014629;28;20688;-78
2022/01/21 05:00:30;;;;;;;9.57;5.20;;;;;;;;;;5014660;28;20706;-78
2022/01/21 05:02:57;;;;;;;10.03;5.47;;;;;;;;;;5014616;28;20233;-78
2022/01/21 05:05:24;;;;;;;7.43;5.13;;;;;;;;;;5014788;28;20205;-78
2022/01/21 05:07:53;;;;;;;9.70;5.20;;;;;;;;;;5015177;28;20306;-78
2022/01/21 05:10:20;;;;;;;11.47;5.10;;;;;;;;;;5014878;28;20200;-78
2022/01/21 05:12:48;;;;;;;13.17;5.73;;;;;;;;;;5014434;28;20227;-77
2022/01/21 05:15:22;;;;;;;9.67;5.57;;;;;;;;;;5014408;28;20288;-77
2022/01/21 05:17:50;;;;;;;10.23;6.03;;;;;;;;;;5013725;28;20737;-77
2022/01/21 05:20:17;;;;;;;10.80;5.30;;;;;;;;;;5013868;28;20664;-77
2022/01/21 05:22:45;;;;;;;8.73;5.50;;;;;;;;;;5014364;28;20239;-78
2022/01/21 05:25:17;;;;;;;10.87;5.80;;;;;;;;;;5013929;28;20284;-77
2022/01/21 05:27:45;;;;;;;7.07;5.43;;;;;;;;;;5013455;28;20259;-78
2022/01/21 05:30:14;;;;;;;14.87;5.33;;;;;;;;;;5013548;28;20236;-77
2022/01/21 05:32:41;;;;;;;10.23;5.83;;;;;;;;;;5013148;28;20236;-77
2022/01/21 05:35:09;;;;;;;10.90;5.50;;;;;;;;;;5013955;28;20201;-77
2022/01/21 05:37:36;;;;;;;11.87;5.73;;;;;;;;;;5014245;28;20287;-77
2022/01/21 05:40:04;;;;;;;11.27;5.20;;;;;;;;;;5013784;28;20307;-77
2022/01/21 05:42:33;;;;;;;10.87;5.33;;;;;;;;;;5014122;28;20220;-77
2022/01/21 05:47:47;;;;;;;12.87;5.90;;;;;;;;;;5013674;28;20197;-77
2022/01/21 05:50:14;;;;;;;9.57;5.57;;;;;;;;;;5013641;28;20288;-77
2022/01/21 05:52:45;;;;;;;10.50;5.87;;;;;;;;;;5013497;28;20295;-77
2022/01/21 05:55:12;;;;;;;15.87;6.67;;;;;;;;;;5012019;28;20242;-77
2022/01/21 05:57:39;;;;;;;13.07;6.70;;;;;;;;;;5013933;28;20291;-78
2022/01/21 06:00:07;;;;;;;12.63;6.17;;;;;;;;;;5013594;28;20300;-77
2022/01/21 06:02:34;;;;;;;11.67;6.47;;;;;;;;;;5013547;28;20291;-77
2022/01/21 06:05:03;;;;;;;11.37;5.83;;;;;;;;;;5013432;28;20224;-78
2022/01/21 06:07:30;;;;;;;10.67;5.80;;;;;;;;;;5013577;28;20208;-79
2022/01/21 06:09:57;;;;;;;15.30;5.43;;;;;;;;;;5013291;28;20691;-79
2022/01/21 06:12:25;;;;;;;16.30;5.77;;;;;;;;;;5013725;28;20288;-79
2022/01/21 06:14:52;;;;;;;11.50;6.07;;;;;;;;;;5013868;28;20240;-79
2022/01/21 06:17:19;;;;;;;11.43;5.67;;;;;;;;;;5012484;28;20292;-79
2022/01/21 06:19:47;;;;;;;12.90;5.57;;;;;;;;;;5012675;28;20243;-79
2022/01/21 06:22:16;;;;;;;11.37;5.70;;;;;;;;;;5012864;28;20276;-80
2022/01/21 06:24:43;;;;;;;11.60;4.97;;;;;;;;;;5012771;28;20264;-79
2022/01/21 06:27:11;;;;;;;11.57;5.20;;;;;;;;;;5013020;28;20234;-78
2022/01/21 06:29:38;;;;;;;10.30;5.50;;;;;;;;;;5011940;28;20204;-79
2022/01/21 06:32:06;;;;;;;8.30;4.80;;;;;;;;;;5012954;28;20287;-79
2022/01/21 06:34:33;;;;;;;10.03;4.60;;;;;;;;;;5012369;28;20288;-78
2022/01/21 06:37:01;;;;;;;12.97;5.23;;;;;;;;;;5012697;28;20231;-79
2022/01/21 06:39:30;;;;;;;12.47;5.63;;;;;;;;;;5010869;28;20235;-79
2022/01/21 06:41:57;;;;;;;12.50;7.63;;;;;;;;;;5010649;28;20291;-78
2022/01/21 06:44:24;;;;;;;12.10;6.53;;;;;;;;;;5011029;28;20319;-78
2022/01/21 06:46:51;;;;;;;9.97;6.30;;;;;;;;;;5012385;28;20305;-78
2022/01/21 06:49:18;;;;;;;13.17;6.27;;;;;;;;;;5012146;28;20240;-77
2022/01/21 06:51:45;;;;;;;11.00;6.03;;;;;;;;;;5010432;28;20608;-79
2022/01/21 06:54:13;;;;;;;13.60;5.70;;;;;;;;;;5010442;28;20298;-79
2022/01/21 06:56:42;;;;;;;9.60;5.70;;;;;;;;;;5006957;28;20209;-79
2022/01/21 06:59:09;;;;;;;17.67;5.97;;;;;;;;;;4998160;28;20225;-79
2022/01/21 07:01:36;;;;;;;18.50;6.10;;;;;;;;;;5014728;28;20257;-79
2022/01/21 07:04:03;;;;;;;13.83;6.03;;;;;;;;;;5014754;28;20235;-81
2022/01/21 07:06:31;;;;;;;13.23;5.47;;;;;;;;;;5011298;28;20200;-81
2022/01/21 07:08:58;;;;;;;12.53;7.40;;;;;;;;;;5011872;28;20240;-81
2022/01/21 07:11:25;;;;;;;15.07;8.27;;;;;;;;;;5009683;28;20204;-81
2022/01/21 07:13:54;;;;;;;13.00;7.07;;;;;;;;;;5012178;28;20240;-81
2022/01/21 07:16:22;;;;;;;14.23;6.93;;;;;;;;;;5012172;28;20238;-81
2022/01/21 07:18:49;;;;;;;13.07;7.47;;;;;;;;;;5012462;28;21100;-81
2022/01/21 07:21:16;;;;;;;14.03;7.00;;;;;;;;;;5012414;28;20249;-80
2022/01/21 07:23:43;;;;;;;15.27;6.00;;;;;;;;;;5012378;28;20748;-81
2022/01/21 07:26:12;;;;;;;15.50;7.00;;;;;;;;;;5012029;28;20280;-81
2022/01/21 07:28:39;;;;;;;12.47;7.47;;;;;;;;;;5011876;28;20290;-80
2022/01/21 07:31:08;;;;;;;16.67;6.97;;;;;;;;;;5012500;28;20238;-81
2022/01/21 07:33:36;;;;;;;20.13;6.63;;;;;;;;;;5012573;28;20295;-81
2022/01/21 07:36:04;;;;;;;14.07;6.70;;;;;;;;;;5012287;28;20200;-81
2022/01/21 07:38:31;;;;;;;16.67;8.77;;;;;;;;;;5011808;28;20232;-81
2022/01/21 07:40:59;;;;;;;12.50;7.97;;;;;;;;;;5012158;28;20263;-81
2022/01/21 07:43:26;;;;;;;14.77;7.23;;;;;;;;;;5012076;28;20256;-81
2022/01/21 07:45:53;;;;;;;12.27;7.00;;;;;;;;;;5011842;28;20765;-81
2022/01/21 07:48:22;;;;;;;14.53;8.00;;;;;;;;;;5010678;28;20248;-82
2022/01/21 07:50:49;;;;;;;16.23;9.30;;;;;;;;;;5022065;28;20244;-82
2022/01/21 07:53:16;;;;;;;16.77;7.00;;;;;;;;;;5011053;28;20691;-82
2022/01/21 07:55:44;;;;;;;13.33;8.47;;;;;;;;;;5006654;28;20298;-82
2022/01/21 07:58:12;;;;;;;13.53;8.03;;;;;;;;;;5009952;28;20200;-82
2022/01/21 08:00:39;;;;;;;15.60;8.50;;;;;;;;;;5000768;28;20296;-81
2022/01/21 08:03:06;;;;;;;16.47;9.10;;;;;;;;;;5010838;28;20291;-81
2022/01/21 08:05:35;;;;;;;14.13;8.60;;;;;;;;;;5010615;28;20200;-82
2022/01/21 08:08:02;;;;;;;15.47;9.83;;;;;;;;;;5014347;28;20197;-81
2022/01/21 08:10:31;;;;;;;15.93;8.90;;;;;;;;;;5010561;28;20302;-82
2022/01/21 08:13:00;;;;;;;15.30;9.33;;;;;;;;;;5015667;28;20243;-81
2022/01/21 08:15:28;;;;;;;15.57;8.60;;;;;;;;;;5011270;28;20207;-82
2022/01/21 08:17:55;;;;;;;20.37;8.20;;;;;;;;;;5014641;28;20295;-82
2022/01/21 08:20:22;;;;;;;13.03;7.50;;;;;;;;;;5015676;28;20284;-81
2022/01/21 08:22:51;;;;;;;9.53;6.50;;;;;;;;;;5014821;28;20255;-82
2022/01/21 08:25:18;;;;;;;17.77;7.53;;;;;;;;;;5017864;28;20307;-83
2022/01/21 08:27:45;;;;;;;11.70;6.33;;;;;;;;;;5017974;28;20215;-83
2022/01/21 08:30:13;;;;;;;11.67;5.40;;;;;;;;;;5015398;28;20225;-82
2022/01/21 08:32:40;;;;;;;9.77;4.87;;;;;;;;;;5017586;28;20732;-82
2022/01/21 08:35:08;;;;;;;12.00;5.20;;;;;;;;;;5016774;28;20303;-82
2022/01/21 08:37:35;;;;;;;6.37;4.70;;;;;;;;;;5021010;28;20971;-82
2022/01/21 08:40:05;;;;;;;8.43;4.83;;;;;;;;;;5024354;28;20239;-83
2022/01/21 08:42:32;;;;;;;10.43;4.80;;;;;;;;;;5016302;28;20264;-84
2022/01/21 08:45:01;;;;;;;8.37;4.63;;;;;;;;;;5015145;28;20249;-83
2022/01/21 08:47:29;;;;;;;7.80;4.20;;;;;;;;;;5010606;28;20224;-84
2022/01/21 08:49:59;;;;;;;8.43;4.10;;;;;;;;;;5014772;28;20207;-84
2022/01/21 08:52:29;;;;;;;8.67;4.27;;;;;;;;;;5013417;28;20205;-84
2022/01/21 08:54:56;;;;;;;8.20;4.63;;;;;;;;;;5013036;28;20244;-84
2022/01/21 08:57:25;;;;;;;7.13;3.80;;;;;;;;;;5013903;28;20244;-85
2022/01/21 08:59:53;;;;;;;7.73;3.87;;;;;;;;;;5014196;28;21132;-85
2022/01/21 09:02:20;;;;;;;10.23;6.47;;;;;;;;;;5010801;28;20294;-85
2022/01/21 09:04:52;;;;;;;17.43;11.00;;;;;;;;;;5011638;28;20308;-85
2022/01/21 09:07:19;;;;;;;9.20;6.07;;;;;;;;;;5016278;28;20340;-85
2022/01/21 09:09:46;;;;;;;10.40;6.70;;;;;;;;;;5017381;28;20233;-85
2022/01/21 09:12:13;;;;;;;13.83;7.50;;;;;;;;;;5014074;28;20228;-85
2022/01/21 09:14:44;;;;;;;14.40;9.60;;;;;;;;;;5016113;28;20279;-85
2022/01/21 09:17:11;;;;;;;8.87;5.07;;;;;;;;;;5009657;28;20716;-85
2022/01/21 09:19:38;;;;;;;12.03;7.20;;;;;;;;;;5014829;28;20232;-85
2022/01/21 09:22:06;;;;;;;9.37;5.77;;;;;;;;;;5018374;28;20225;-84
2022/01/21 09:24:33;;;;;;;10.47;8.73;;;;;;;;;;5012152;28;20197;-85
2022/01/21 09:27:00;;;;;;;7.40;4.30;;;;;;;;;;5017468;28;20228;-85
2022/01/21 09:29:28;;;;;;;11.43;4.27;;;;;;;;;;5006866;28;20259;-85
2022/01/21 09:31:57;;;;;;;7.63;3.97;;;;;;;;;;5016497;28;20857;-85
2022/01/21 09:34:24;;;;;;;10.37;4.83;;;;;;;;;;5013777;28;20205;-85
2022/01/21 09:36:52;;;;;;;12.93;5.53;;;;;;;;;;5013477;28;20259;-80
2022/01/21 09:39:19;;;;;;;81.63;50.00;;;;;;;;;;5013950;28;20288;-80
2022/01/21 09:41:48;;;;;;;12.03;4.83;;;;;;;;;;5013396;28;20307;-79
2022/01/21 09:44:15;;;;;;;13.90;4.80;;;;;;;;;;5013229;28;20712;-79
2022/01/21 09:46:45;;;;;;;9.23;4.17;;;;;;;;;;5009469;28;20695;-79
2022/01/21 09:49:31;;;;;;;9.53;4.50;;;;;;;;;;5015206;28;20673;-86
2022/01/21 09:52:03;;;;;;;8.53;4.60;;;;;;;;;;5011744;28;20240;-86
2022/01/21 09:54:32;;;;;;;10.80;5.60;;;;;;;;;;5012730;28;20235;-85
2022/01/21 09:56:59;;;;;;;12.67;6.63;;;;;;;;;;5014975;28;20676;-86
2022/01/21 09:59:27;;;;;;;10.60;4.43;;;;;;;;;;5013442;28;20232;-79
2022/01/21 10:01:56;;;;;;;21.90;14.23;;;;;;;;;;5010399;28;20221;-80
2022/01/21 10:04:27;;;;;;;11.37;4.87;;;;;;;;;;5012526;28;20296;-79
2022/01/21 10:06:55;;;;;;;8.97;4.10;;;;;;;;;;5012189;28;20201;-79
2022/01/21 10:09:23;;;;;;;10.57;5.10;;;;;;;;;;5013641;28;20224;-86
2022/01/21 10:11:52;;;;;;;10.83;3.97;;;;;;;;;;5012900;28;20255;-80
2022/01/21 10:14:22;;;;;;;9.50;4.83;;;;;;;;;;5012372;28;20205;-86
2022/01/21 10:16:49;;;;;;;10.47;4.20;;;;;;;;;;5013124;28;20205;-87
2022/01/21 10:19:23;;;;;;;10.70;4.57;;;;;;;;;;5015302;28;20233;-86
2022/01/21 10:21:58;;;;;;;11.30;3.70;;;;;;;;;;5009470;28;20228;-87
2022/01/21 10:24:26;;;;;;;10.33;3.90;;;;;;;;;;5013523;28;20223;-80
2022/01/21 10:26:55;;;;;;;9.97;4.03;;;;;;;;;;5011853;28;20287;-80
2022/01/21 10:29:22;;;;;;;13.53;5.30;;;;;;;;;;5012035;28;20753;-79
2022/01/21 10:31:54;;;;;;;12.40;4.17;;;;;;;;;;5012198;28;20700;-88
2022/01/21 10:34:25;;;;;;;9.67;3.73;;;;;;;;;;5011905;28;20684;-87
2022/01/21 10:36:58;;;;;;;14.57;5.80;;;;;;;;;;5009149;28;20205;-80
2022/01/21 10:39:30;;;;;;;14.40;5.07;;;;;;;;;;5011059;28;21712;-86
2022/01/21 10:41:59;;;;;;;10.60;4.00;;;;;;;;;;5008911;28;20275;-80
2022/01/21 10:44:30;;;;;;;14.53;6.70;;;;;;;;;;5012237;28;20300;-87
2022/01/21 10:47:07;;;;;;;15.57;10.17;;;;;;;;;;5017683;28;20204;-80
2022/01/21 10:49:39;;;;;;;15.50;8.27;;;;;;;;;;5011782;28;20208;-80
2022/01/21 10:52:09;;;;;;;20.27;10.57;;;;;;;;;;5011533;28;20193;-87
2022/01/21 10:54:44;;;;;;;39.57;27.00;;;;;;;;;;5011022;28;20197;-86
2022/01/21 10:57:12;;;;;;;46.30;33.20;;;;;;;;;;5012840;28;20216;-80
2022/01/21 10:59:50;;;;;;;17.93;9.90;;;;;;;;;;5011837;28;20688;-80
2022/01/21 11:02:28;;;;;;;15.53;5.00;;;;;;;;;;5010914;28;20643;-86
2022/01/21 11:05:03;;;;;;;46.17;33.83;;;;;;;;;;5007847;28;20619;-86
2022/01/21 11:07:48;;;;;;;10.37;5.03;;;;;;;;;;5008497;28;20778;-80
2022/01/21 11:10:34;;;;;;;19.80;11.07;;;;;;;;;;5011057;28;20203;-86
2022/01/21 11:13:03;;;;;;;15.27;8.13;;;;;;;;;;5008891;28;20208;-80
2022/01/21 11:15:39;;;;;;;8.77;3.07;;;;;;;;;;5013083;28;20204;-80
2022/01/21 11:18:08;;;;;;;10.63;3.47;;;;;;;;;;5011585;28;20215;-80
2022/01/21 11:20:38;;;;;;;13.40;4.70;;;;;;;;;;5016525;28;20247;-86
2022/01/21 11:23:06;;;;;;;9.30;3.17;;;;;;;;;;5011175;28;20225;-80
2022/01/21 11:25:42;;;;;;;8.27;3.20;;;;;;;;;;5011285;28;20224;-80
2022/01/21 11:28:11;;;;;;;11.33;3.80;;;;;;;;;;5011448;28;20204;-86
2022/01/21 11:30:38;;;;;;;14.67;4.13;;;;;;;;;;5010798;28;20221;-80
2022/01/21 11:33:05;;;;;;;7.83;2.73;;;;;;;;;;5010022;28;20300;-80
2022/01/21 11:35:36;;;;;;;12.70;3.50;;;;;;;;;;5012297;28;20215;-80
2022/01/21 11:38:06;;;;;;;8.20;4.00;;;;;;;;;;5014208;28;20208;-86
2022/01/21 11:40:33;;;;;;;9.43;4.03;;;;;;;;;;5009765;28;20316;-80
2022/01/21 11:43:00;;;;;;;16.63;6.87;;;;;;;;;;5008709;28;20260;-86
2022/01/21 11:45:43;;;;;;;12.00;6.13;;;;;;;;;;5011447;28;20633;-87
2022/01/21 11:51:00;;;;;;;7.43;2.30;;;;;;;;;;5009691;28;20665;-82
2022/01/21 11:53:46;;;;;;;10.50;2.80;;;;;;;;;;5016455;28;20228;-82
2022/01/21 11:56:28;;;;;;;7.87;2.23;;;;;;;;;;5007168;28;20203;-82
2022/01/21 11:59:23;;;;;;;12.43;2.53;;;;;;;;;;5004264;28;20201;-82
2022/01/21 12:01:52;;;;;;;9.27;2.20;;;;;;;;;;5006796;28;20275;-82
2022/01/21 12:04:40;;;;;;;8.87;2.53;;;;;;;;;;5010214;28;20225;-86
2022/01/21 12:07:30;;;;;;;8.57;2.53;;;;;;;;;;5014513;28;20232;-81
2022/01/21 12:09:58;;;;;;;8.63;2.33;;;;;;;;;;5011099;28;20205;-80
2022/01/21 12:12:26;;;;;;;19.20;14.33;;;;;;;;;;5007440;28;20197;-80
2022/01/21 12:15:00;;;;;;;6.43;2.43;;;;;;;;;;5009387;28;20196;-79
2022/01/21 12:17:44;;;;;;;4.10;2.80;;;;;;;;;;5010198;28;20209;-79
2022/01/21 12:20:12;;;;;;;7.43;2.40;;;;;;;;;;5012728;28;20200;-80
2022/01/21 12:22:39;;;;;;;5.90;2.30;;;;;;;;;;5008793;28;20224;-80
2022/01/21 12:25:08;;;;;;;6.47;1.90;;;;;;;;;;5009125;28;20224;-80
2022/01/21 12:27:36;;;;;;;8.23;2.40;;;;;;;;;;5010579;28;20774;-80
2022/01/21 12:30:23;;;;;;;5.57;2.33;;;;;;;;;;5009815;28;20599;-80
2022/01/21 12:32:56;;;;;;;11.70;3.70;;;;;;;;;;5016846;28;20209;-80
2022/01/21 12:35:23;;;;;;;7.97;4.93;;;;;;;;;;5014409;28;20300;-80
2022/01/21 12:39:05;;;;;;;10.93;6.40;;;;;;;;;;5011151;28;20238;-80
2022/01/21 12:40:57;;;;;;;16.30;7.83;;;;;;;;;;5014963;28;20296;-80
2022/01/21 12:43:44;;;;;;;7.90;2.53;;;;;;;;;;5008953;28;20294;-80
2022/01/21 12:46:14;;;;;;;10.23;3.80;;;;;;;;;;5009486;28;20208;-79
2022/01/21 12:48:43;;;;;;;6.63;2.37;;;;;;;;;;5003140;28;20208;-80
2022/01/21 12:51:18;;;;;;;6.03;2.47;;;;;;;;;;5009680;28;20197;-80
2022/01/21 12:56:37;;;;;;;6.13;3.43;;;;;;;;;;4951150;28;20230;-80
2022/01/21 12:59:05;;;;;;;8.23;2.23;;;;;;;;;;4950224;28;20282;-79
2022/01/21 13:01:37;;;;;;;6.90;2.47;;;;;;;;;;4943609;28;20680;-78
2022/01/21 13:04:10;;;;;;;9.10;3.20;;;;;;;;;;4951893;28;20219;-79
2022/01/21 13:06:43;;;;;;;7.80;2.13;;;;;;;;;;4951390;28;20281;-79
2022/01/21 13:09:12;;;;;;;6.60;3.40;;;;;;;;;;4952364;28;20205;-79
2022/01/21 13:11:41;;;;;;;6.73;2.07;;;;;;;;;;4952271;28;20233;-79
2022/01/21 13:14:25;;;;;;;6.37;3.17;;;;;;;;;;4952894;28;20249;-79
2022/01/21 13:16:56;;;;;;;5.07;1.93;;;;;;;;;;4954696;28;20214;-78
2022/01/21 13:19:25;;;;;;;8.37;4.10;;;;;;;;;;4954728;28;20203;-79
2022/01/21 13:21:52;;;;;;;8.20;4.40;;;;;;;;;;4953495;28;20234;-78
2022/01/21 13:27:03;;;;;;;4.57;1.80;;;;;;;;;;4956847;28;20244;-78
2022/01/21 13:29:32;;;;;;;6.60;2.00;;;;;;;;;;4952972;28;20241;-78
2022/01/21 13:32:00;;;;;;;7.57;2.40;;;;;;;;;;4950535;28;20715;-78
2022/01/21 13:34:30;;;;;;;5.70;2.50;;;;;;;;;;4993415;28;20197;-79
2022/01/21 13:36:58;;;;;;;19.47;3.53;;;;;;;;;;5010832;28;20213;-78
2022/01/21 13:39:27;;;;;;;9.40;3.40;;;;;;;;;;5006374;28;20208;-78
2022/01/21 13:41:56;;;;;;;9.33;4.57;;;;;;;;;;5013833;28;20245;-78
2022/01/21 13:44:31;;;;;;;12.73;3.50;;;;;;;;;;5007993;28;20334;-78
2022/01/21 13:46:58;;;;;;;12.30;3.40;;;;;;;;;;5017931;28;20236;-78
2022/01/21 13:49:26;;;;;;;8.87;3.53;;;;;;;;;;5008280;28;20195;-78
2022/01/21 13:51:56;;;;;;;10.83;3.83;;;;;;;;;;5012505;28;20204;-78
2022/01/21 13:54:34;;;;;;;14.97;4.57;;;;;;;;;;5012356;28;20213;-78
2022/01/21 13:57:02;;;;;;;12.93;3.80;;;;;;;;;;5012731;28;20296;-78
2022/01/21 13:59:29;;;;;;;8.67;3.30;;;;;;;;;;5012162;28;20288;-78
2022/01/21 14:02:04;;;;;;;7.33;3.00;;;;;;;;;;5012765;28;20206;-78
2022/01/21 14:04:31;;;;;;;8.67;3.07;;;;;;;;;;5011456;28;20705;-78
2022/01/21 14:07:00;;;;;;;8.00;2.97;;;;;;;;;;5017589;28;20752;-78
2022/01/21 14:09:27;;;;;;;9.17;3.27;;;;;;;;;;5009233;28;20288;-78
2022/01/21 14:11:56;;;;;;;12.77;3.37;;;;;;;;;;5011319;28;20201;-78
2022/01/21 14:14:24;;;;;;;10.17;3.60;;;;;;;;;;5010810;28;20193;-78
2022/01/21 14:16:55;;;;;;;12.37;3.80;;;;;;;;;;5017894;28;20228;-78
2022/01/21 14:19:23;;;;;;;9.83;3.70;;;;;;;;;;5011549;28;20751;-78
2022/01/21 14:22:00;;;;;;;9.67;2.97;;;;;;;;;;5011712;28;20751;-78
2022/01/21 14:24:28;;;;;;;10.17;3.60;;;;;;;;;;5011452;28;20225;-78
2022/01/21 14:26:57;;;;;;;8.67;3.17;;;;;;;;;;5012549;28;20287;-78
2022/01/21 14:29:29;;;;;;;9.27;3.13;;;;;;;;;;5006074;28;20237;-78
2022/01/21 14:32:00;;;;;;;8.40;3.00;;;;;;;;;;5012373;28;20280;-78
2022/01/21 14:34:28;;;;;;;6.50;2.73;;;;;;;;;;5013010;28;20203;-78
2022/01/21 14:37:02;;;;;;;6.00;2.80;;;;;;;;;;5012353;28;20300;-83
2022/01/21 14:39:34;;;;;;;7.87;2.77;;;;;;;;;;5012882;28;20283;-83
2022/01/21 14:42:02;;;;;;;8.03;2.90;;;;;;;;;;5015145;28;20222;-84
2022/01/21 14:44:36;;;;;;;7.70;3.03;;;;;;;;;;5011618;28;20276;-83
2022/01/21 14:47:07;;;;;;;10.97;3.43;;;;;;;;;;5012491;28;20326;-84
2022/01/21 14:49:34;;;;;;;7.70;2.67;;;;;;;;;;5012644;28;20233;-84
2022/01/21 14:52:33;;;;;;;7.50;2.57;;;;;;;;;;5012009;28;20296;-83
2022/01/21 14:54:51;;;;;;;7.23;2.57;;;;;;;;;;5011004;28;20205;-83
2022/01/21 14:57:18;;;;;;;8.40;2.37;;;;;;;;;;5017289;28;20292;-84
2022/01/21 14:59:53;;;;;;;7.37;2.40;;;;;;;;;;5011851;28;20233;-83
2022/01/21 15:02:27;;;;;;;7.40;2.90;;;;;;;;;;5012229;28;20207;-84
2022/01/21 15:04:55;;;;;;;6.60;2.97;;;;;;;;;;5011292;28;20228;-83
2022/01/21 15:07:27;;;;;;;9.43;3.47;;;;;;;;;;5012371;28;20202;-83
2022/01/21 15:09:57;;;;;;;7.97;3.30;;;;;;;;;;5011053;28;20208;-83
2022/01/21 15:15:30;;;;;;;9.23;3.60;;;;;;;;;;5011250;28;20786;-82
2022/01/21 15:17:57;;;;;;;9.03;3.50;;;;;;;;;;5011412;28;20194;-86
2022/01/21 15:20:25;;;;;;;37.30;31.90;;;;;;;;;;5012225;28;20297;-88
2022/01/21 15:22:52;;;;;;;50.20;29.00;;;;;;;;;;5012113;28;20221;-85
2022/01/21 15:25:20;;;;;;;19.70;8.03;;;;;;;;;;5009139;28;20271;-85
2022/01/21 15:27:48;;;;;;;33.50;15.63;;;;;;;;;;5011299;28;20296;-85
2022/01/21 15:30:16;;;;;;;23.17;9.63;;;;;;;;;;5005942;28;20680;-85
2022/01/21 15:32:43;;;;;;;24.27;12.47;;;;;;;;;;5011463;28;20193;-85
2022/01/21 15:35:11;;;;;;;64.40;36.17;;;;;;;;;;5010592;28;20253;-85
2022/01/21 15:37:39;;;;;;;45.20;25.90;;;;;;;;;;5010189;28;20248;-84
2022/01/21 15:40:07;;;;;;;25.20;14.60;;;;;;;;;;5005968;28;20237;-86